sensor_id;sensor_type;location;lat;lon;timestamp;P1;durP1;ratioP1;P2;durP2;ratioP2
2049;SDS011;8478;49.208;8.806;2022-07-23T00:01:16;9.77;;;9.10;;
2049;SDS011;8478;49.208;8.806;2022-07-23T00:03:41;10.93;;;10.13;;
2049;SDS011;8478;49.208;8.806;2022-07-23T00:06:07;10.33;;;9.63;;
2049;SDS011;8478;49.208;8.806;2022-07-23T00:08:33;10.57;;;9.87;;
2049;SDS011;8478;49.208;8.806;2022-07-23T00:10:58;10.90;;;9.90;;
2049;SDS011;8478;49.208;8.806;2022-07-23T00:13:25;11.13;;;10.33;;
2049;SDS011;8478;49.208;8.806;2022-07-23T00:15:51;10.40;;;9.60;;
2049;SDS011;8478;49.208;8.806;2022-07-23T00:18:17;11.07;;;10.33;;
2049;SDS011;8478;49.208;8.806;2022-07-23T00:20:43;9.80;;;9.20;;
2049;SDS011;8478;49.208;8.806;2022-07-23T00:23:10;11.40;;;10.60;;
2049;SDS011;8478;49.208;8.806;2022-07-23T00:25:35;10.80;;;10.00;;
2049;SDS011;8478;49.208;8.806;2022-07-23T00:28:01;10.10;;;9.20;;
2049;SDS011;8478;49.208;8.806;2022-07-23T00:30:28;9.80;;;9.17;;
2049;SDS011;8478;49.208;8.806;2022-07-23T00:32:55;9.53;;;8.83;;
2049;SDS011;8478;49.208;8.806;2022-07-23T00:35:26;10.00;;;9.30;;
2049;SDS011;8478;49.208;8.806;2022-07-23T00:37:53;10.10;;;9.40;;
2049;SDS011;8478;49.208;8.806;2022-07-23T00:40:20;9.90;;;9.20;;
2049;SDS011;8478;49.208;8.806;2022-07-23T00:42:46;9.23;;;8.63;;
2049;SDS011;8478;49.208;8.806;2022-07-23T00:45:12;9.90;;;9.20;;
2049;SDS011;8478;49.208;8.806;2022-07-23T00:47:38;10.47;;;9.67;;
2049;SDS011;8478;49.208;8.806;2022-07-23T00:50:04;10.47;;;9.77;;
2049;SDS011;8478;49.208;8.806;2022-07-23T00:52:32;10.43;;;9.73;;
2049;SDS011;8478;49.208;8.806;2022-07-23T00:54:58;9.90;;;9.10;;
2049;SDS011;8478;49.208;8.806;2022-07-23T00:57:24;10.10;;;9.40;;
2049;SDS011;8478;49.208;8.806;2022-07-23T00:59:50;10.37;;;9.47;;
2049;SDS011;8478;49.208;8.806;2022-07-23T01:02:16;9.80;;;9.10;;
2049;SDS011;8478;49.208;8.806;2022-07-23T01:04:42;10.33;;;9.63;;
2049;SDS011;8478;49.208;8.806;2022-07-23T01:07:09;10.63;;;9.90;;
2049;SDS011;8478;49.208;8.806;2022-07-23T01:09:35;9.30;;;8.70;;
2049;SDS011;8478;49.208;8.806;2022-07-23T01:12:01;10.83;;;9.93;;
2049;SDS011;8478;49.208;8.806;2022-07-23T01:14:28;10.00;;;9.20;;
2049;SDS011;8478;49.208;8.806;2022-07-23T01:16:53;10.30;;;9.60;;
2049;SDS011;8478;49.208;8.806;2022-07-23T01:19:19;10.23;;;9.53;;
2049;SDS011;8478;49.208;8.806;2022-07-23T01:21:49;10.10;;;9.40;;
2049;SDS011;8478;49.208;8.806;2022-07-23T01:24:16;10.53;;;9.73;;
2049;SDS011;8478;49.208;8.806;2022-07-23T01:26:46;10.77;;;10.07;;
2049;SDS011;8478;49.208;8.806;2022-07-23T01:29:13;10.43;;;9.73;;
2049;SDS011;8478;49.208;8.806;2022-07-23T01:31:40;10.57;;;9.77;;
2049;SDS011;8478;49.208;8.806;2022-07-23T01:34:06;10.70;;;9.93;;
2049;SDS011;8478;49.208;8.806;2022-07-23T01:36:36;10.13;;;9.40;;
2049;SDS011;8478;49.208;8.806;2022-07-23T01:39:02;9.90;;;9.20;;
2049;SDS011;8478;49.208;8.806;2022-07-23T01:41:29;11.23;;;10.47;;
2049;SDS011;8478;49.208;8.806;2022-07-23T01:43:55;9.30;;;8.70;;
2049;SDS011;8478;49.208;8.806;2022-07-23T01:46:21;9.40;;;8.80;;
2049;SDS011;8478;49.208;8.806;2022-07-23T01:48:47;10.20;;;9.50;;
2049;SDS011;8478;49.208;8.806;2022-07-23T01:51:13;11.43;;;10.53;;
2049;SDS011;8478;49.208;8.806;2022-07-23T01:53:39;10.10;;;9.40;;
2049;SDS011;8478;49.208;8.806;2022-07-23T01:56:04;11.00;;;10.10;;
2049;SDS011;8478;49.208;8.806;2022-07-23T01:58:30;9.67;;;8.97;;
2049;SDS011;8478;49.208;8.806;2022-07-23T02:00:57;10.83;;;10.03;;
2049;SDS011;8478;49.208;8.806;2022-07-23T02:03:23;10.80;;;10.00;;
2049;SDS011;8478;49.208;8.806;2022-07-23T02:05:48;9.90;;;9.13;;
2049;SDS011;8478;49.208;8.806;2022-07-23T02:08:14;10.80;;;10.00;;
2049;SDS011;8478;49.208;8.806;2022-07-23T02:10:40;10.07;;;9.40;;
2049;SDS011;8478;49.208;8.806;2022-07-23T02:13:06;10.27;;;9.57;;
2049;SDS011;8478;49.208;8.806;2022-07-23T02:15:32;10.70;;;9.80;;
2049;SDS011;8478;49.208;8.806;2022-07-23T02:17:58;10.90;;;10.20;;
2049;SDS011;8478;49.208;8.806;2022-07-23T02:20:24;10.43;;;9.77;;
2049;SDS011;8478;49.208;8.806;2022-07-23T02:22:50;10.63;;;9.83;;
2049;SDS011;8478;49.208;8.806;2022-07-23T02:25:16;11.33;;;9.43;;
2049;SDS011;8478;49.208;8.806;2022-07-23T02:27:41;10.87;;;10.00;;
2049;SDS011;8478;49.208;8.806;2022-07-23T02:30:07;11.60;;;10.70;;
2049;SDS011;8478;49.208;8.806;2022-07-23T02:32:33;11.10;;;10.30;;
2049;SDS011;8478;49.208;8.806;2022-07-23T02:35:00;11.53;;;10.67;;
2049;SDS011;8478;49.208;8.806;2022-07-23T02:37:26;10.43;;;9.70;;
2049;SDS011;8478;49.208;8.806;2022-07-23T02:39:52;10.37;;;9.67;;
2049;SDS011;8478;49.208;8.806;2022-07-23T02:42:18;10.00;;;9.30;;
2049;SDS011;8478;49.208;8.806;2022-07-23T02:44:44;10.40;;;9.70;;
2049;SDS011;8478;49.208;8.806;2022-07-23T02:47:10;10.90;;;10.20;;
2049;SDS011;8478;49.208;8.806;2022-07-23T02:49:35;10.50;;;9.67;;
2049;SDS011;8478;49.208;8.806;2022-07-23T02:52:01;10.07;;;9.27;;
2049;SDS011;8478;49.208;8.806;2022-07-23T02:54:27;10.40;;;9.57;;
2049;SDS011;8478;49.208;8.806;2022-07-23T02:56:53;10.03;;;9.33;;
2049;SDS011;8478;49.208;8.806;2022-07-23T02:59:19;10.30;;;9.60;;
2049;SDS011;8478;49.208;8.806;2022-07-23T03:01:44;10.00;;;9.30;;
2049;SDS011;8478;49.208;8.806;2022-07-23T03:04:10;9.40;;;8.67;;
2049;SDS011;8478;49.208;8.806;2022-07-23T03:06:36;9.43;;;8.80;;
2049;SDS011;8478;49.208;8.806;2022-07-23T03:09:03;10.53;;;9.70;;
2049;SDS011;8478;49.208;8.806;2022-07-23T03:11:29;9.57;;;8.87;;
2049;SDS011;8478;49.208;8.806;2022-07-23T03:13:55;10.70;;;9.80;;
2049;SDS011;8478;49.208;8.806;2022-07-23T03:16:21;10.30;;;9.57;;
2049;SDS011;8478;49.208;8.806;2022-07-23T03:18:46;10.87;;;9.90;;
2049;SDS011;8478;49.208;8.806;2022-07-23T03:21:12;9.70;;;9.00;;
2049;SDS011;8478;49.208;8.806;2022-07-23T03:23:38;9.83;;;9.10;;
2049;SDS011;8478;49.208;8.806;2022-07-23T03:26:03;9.50;;;8.83;;
2049;SDS011;8478;49.208;8.806;2022-07-23T03:28:29;9.50;;;8.80;;
2049;SDS011;8478;49.208;8.806;2022-07-23T03:30:55;9.60;;;8.90;;
2049;SDS011;8478;49.208;8.806;2022-07-23T03:33:22;9.33;;;8.70;;
2049;SDS011;8478;49.208;8.806;2022-07-23T03:35:48;10.13;;;9.33;;
2049;SDS011;8478;49.208;8.806;2022-07-23T03:38:14;9.67;;;8.97;;
2049;SDS011;8478;49.208;8.806;2022-07-23T03:40:40;10.87;;;10.07;;
2049;SDS011;8478;49.208;8.806;2022-07-23T03:43:06;9.83;;;9.17;;
2049;SDS011;8478;49.208;8.806;2022-07-23T03:45:32;9.57;;;8.87;;
2049;SDS011;8478;49.208;8.806;2022-07-23T03:47:58;10.10;;;9.30;;
2049;SDS011;8478;49.208;8.806;2022-07-23T03:50:24;10.80;;;10.00;;
2049;SDS011;8478;49.208;8.806;2022-07-23T03:52:50;10.00;;;9.30;;
2049;SDS011;8478;49.208;8.806;2022-07-23T03:55:16;9.10;;;8.40;;
2049;SDS011;8478;49.208;8.806;2022-07-23T03:57:42;9.90;;;9.17;;
2049;SDS011;8478;49.208;8.806;2022-07-23T04:00:08;9.60;;;8.90;;
2049;SDS011;8478;49.208;8.806;2022-07-23T04:02:36;9.80;;;9.10;;
2049;SDS011;8478;49.208;8.806;2022-07-23T04:05:02;9.57;;;8.87;;
2049;SDS011;8478;49.208;8.806;2022-07-23T04:07:28;9.63;;;8.93;;
2049;SDS011;8478;49.208;8.806;2022-07-23T04:09:53;9.17;;;8.47;;
2049;SDS011;8478;49.208;8.806;2022-07-23T04:12:19;9.47;;;8.77;;
2049;SDS011;8478;49.208;8.806;2022-07-23T04:14:45;9.27;;;8.57;;
2049;SDS011;8478;49.208;8.806;2022-07-23T04:17:11;10.80;;;9.80;;
2049;SDS011;8478;49.208;8.806;2022-07-23T04:19:37;9.53;;;8.83;;
2049;SDS011;8478;49.208;8.806;2022-07-23T04:22:06;9.67;;;8.97;;
2049;SDS011;8478;49.208;8.806;2022-07-23T04:24:33;9.77;;;8.97;;
2049;SDS011;8478;49.208;8.806;2022-07-23T04:26:58;9.90;;;9.20;;
2049;SDS011;8478;49.208;8.806;2022-07-23T04:29:24;9.53;;;8.83;;
2049;SDS011;8478;49.208;8.806;2022-07-23T04:31:50;9.53;;;8.83;;
2049;SDS011;8478;49.208;8.806;2022-07-23T04:34:16;10.50;;;9.70;;
2049;SDS011;8478;49.208;8.806;2022-07-23T04:36:42;10.10;;;9.30;;
2049;SDS011;8478;49.208;8.806;2022-07-23T04:39:07;9.00;;;8.30;;
2049;SDS011;8478;49.208;8.806;2022-07-23T04:41:33;9.20;;;8.50;;
2049;SDS011;8478;49.208;8.806;2022-07-23T04:43:59;10.00;;;9.30;;
2049;SDS011;8478;49.208;8.806;2022-07-23T04:46:26;9.03;;;8.43;;
2049;SDS011;8478;49.208;8.806;2022-07-23T04:48:51;9.10;;;8.40;;
2049;SDS011;8478;49.208;8.806;2022-07-23T04:51:17;9.50;;;8.80;;
2049;SDS011;8478;49.208;8.806;2022-07-23T04:53:43;8.50;;;7.90;;
2049;SDS011;8478;49.208;8.806;2022-07-23T04:56:08;9.63;;;8.73;;
2049;SDS011;8478;49.208;8.806;2022-07-23T04:58:34;9.00;;;8.30;;
2049;SDS011;8478;49.208;8.806;2022-07-23T05:01:00;9.37;;;8.57;;
2049;SDS011;8478;49.208;8.806;2022-07-23T05:03:26;8.53;;;7.93;;
2049;SDS011;8478;49.208;8.806;2022-07-23T05:05:51;9.37;;;8.73;;
2049;SDS011;8478;49.208;8.806;2022-07-23T05:08:17;9.57;;;8.77;;
2049;SDS011;8478;49.208;8.806;2022-07-23T05:10:43;9.10;;;8.40;;
2049;SDS011;8478;49.208;8.806;2022-07-23T05:13:08;9.87;;;9.00;;
2049;SDS011;8478;49.208;8.806;2022-07-23T05:15:34;9.27;;;8.47;;
2049;SDS011;8478;49.208;8.806;2022-07-23T05:18:00;10.20;;;9.40;;
2049;SDS011;8478;49.208;8.806;2022-07-23T05:20:25;9.70;;;8.90;;
2049;SDS011;8478;49.208;8.806;2022-07-23T05:22:51;9.77;;;9.00;;
2049;SDS011;8478;49.208;8.806;2022-07-23T05:25:17;9.40;;;8.70;;
2049;SDS011;8478;49.208;8.806;2022-07-23T05:27:43;8.27;;;7.67;;
2049;SDS011;8478;49.208;8.806;2022-07-23T05:30:09;8.23;;;7.57;;
2049;SDS011;8478;49.208;8.806;2022-07-23T05:32:35;9.10;;;8.40;;
2049;SDS011;8478;49.208;8.806;2022-07-23T05:35:02;9.10;;;8.40;;
2049;SDS011;8478;49.208;8.806;2022-07-23T05:37:28;8.43;;;7.83;;
2049;SDS011;8478;49.208;8.806;2022-07-23T05:39:54;8.90;;;8.30;;
2049;SDS011;8478;49.208;8.806;2022-07-23T05:42:20;8.70;;;8.00;;
2049;SDS011;8478;49.208;8.806;2022-07-23T05:44:45;7.93;;;7.33;;
2049;SDS011;8478;49.208;8.806;2022-07-23T05:47:11;8.67;;;8.07;;
2049;SDS011;8478;49.208;8.806;2022-07-23T05:49:37;8.37;;;7.67;;
2049;SDS011;8478;49.208;8.806;2022-07-23T05:52:04;8.10;;;7.50;;
2049;SDS011;8478;49.208;8.806;2022-07-23T05:54:31;8.07;;;7.43;;
2049;SDS011;8478;49.208;8.806;2022-07-23T05:56:59;7.57;;;6.97;;
2049;SDS011;8478;49.208;8.806;2022-07-23T05:59:25;8.50;;;7.90;;
2049;SDS011;8478;49.208;8.806;2022-07-23T06:01:51;8.40;;;7.80;;
2049;SDS011;8478;49.208;8.806;2022-07-23T06:04:16;9.03;;;8.33;;
2049;SDS011;8478;49.208;8.806;2022-07-23T06:06:42;8.20;;;7.60;;
2049;SDS011;8478;49.208;8.806;2022-07-23T06:09:08;9.10;;;8.50;;
2049;SDS011;8478;49.208;8.806;2022-07-23T06:11:35;8.60;;;8.00;;
2049;SDS011;8478;49.208;8.806;2022-07-23T06:14:01;8.83;;;8.10;;
2049;SDS011;8478;49.208;8.806;2022-07-23T06:16:27;8.00;;;7.40;;
2049;SDS011;8478;49.208;8.806;2022-07-23T06:18:53;8.17;;;7.47;;
2049;SDS011;8478;49.208;8.806;2022-07-23T06:21:19;8.20;;;7.50;;
2049;SDS011;8478;49.208;8.806;2022-07-23T06:23:45;8.43;;;7.83;;
2049;SDS011;8478;49.208;8.806;2022-07-23T06:26:10;8.83;;;8.23;;
2049;SDS011;8478;49.208;8.806;2022-07-23T06:28:36;8.90;;;8.20;;
2049;SDS011;8478;49.208;8.806;2022-07-23T06:31:01;9.67;;;8.87;;
2049;SDS011;8478;49.208;8.806;2022-07-23T06:33:27;8.00;;;7.40;;
2049;SDS011;8478;49.208;8.806;2022-07-23T06:35:53;8.37;;;7.57;;
2049;SDS011;8478;49.208;8.806;2022-07-23T06:38:18;9.10;;;8.47;;
2049;SDS011;8478;49.208;8.806;2022-07-23T06:40:44;9.67;;;8.87;;
2049;SDS011;8478;49.208;8.806;2022-07-23T06:43:10;8.57;;;7.97;;
2049;SDS011;8478;49.208;8.806;2022-07-23T06:45:36;9.40;;;8.60;;
2049;SDS011;8478;49.208;8.806;2022-07-23T06:48:02;8.70;;;8.10;;
2049;SDS011;8478;49.208;8.806;2022-07-23T06:50:28;9.10;;;8.50;;
2049;SDS011;8478;49.208;8.806;2022-07-23T06:52:54;8.57;;;7.97;;
2049;SDS011;8478;49.208;8.806;2022-07-23T06:55:20;8.83;;;8.23;;
2049;SDS011;8478;49.208;8.806;2022-07-23T06:57:45;8.90;;;8.30;;
2049;SDS011;8478;49.208;8.806;2022-07-23T07:00:11;8.67;;;8.00;;
2049;SDS011;8478;49.208;8.806;2022-07-23T07:02:37;7.53;;;7.00;;
2049;SDS011;8478;49.208;8.806;2022-07-23T07:05:03;8.67;;;8.07;;
2049;SDS011;8478;49.208;8.806;2022-07-23T07:07:29;9.03;;;8.43;;
2049;SDS011;8478;49.208;8.806;2022-07-23T07:09:54;9.10;;;8.20;;
2049;SDS011;8478;49.208;8.806;2022-07-23T07:12:20;8.47;;;7.83;;
2049;SDS011;8478;49.208;8.806;2022-07-23T07:14:46;8.87;;;8.20;;
2049;SDS011;8478;49.208;8.806;2022-07-23T07:17:11;9.70;;;8.93;;
2049;SDS011;8478;49.208;8.806;2022-07-23T07:19:37;8.70;;;8.07;;
2049;SDS011;8478;49.208;8.806;2022-07-23T07:22:03;7.90;;;7.37;;
2049;SDS011;8478;49.208;8.806;2022-07-23T07:24:28;9.20;;;8.57;;
2049;SDS011;8478;49.208;8.806;2022-07-23T07:26:54;8.90;;;8.30;;
2049;SDS011;8478;49.208;8.806;2022-07-23T07:29:20;9.00;;;8.30;;
2049;SDS011;8478;49.208;8.806;2022-07-23T07:31:45;9.43;;;8.77;;
2049;SDS011;8478;49.208;8.806;2022-07-23T07:34:11;8.70;;;8.03;;
2049;SDS011;8478;49.208;8.806;2022-07-23T07:36:37;9.17;;;8.47;;
2049;SDS011;8478;49.208;8.806;2022-07-23T07:39:03;8.87;;;8.07;;
2049;SDS011;8478;49.208;8.806;2022-07-23T07:41:30;9.10;;;8.40;;
2049;SDS011;8478;49.208;8.806;2022-07-23T07:43:56;8.70;;;8.03;;
2049;SDS011;8478;49.208;8.806;2022-07-23T07:46:22;8.80;;;8.10;;
2049;SDS011;8478;49.208;8.806;2022-07-23T07:48:49;9.80;;;9.00;;
2049;SDS011;8478;49.208;8.806;2022-07-23T07:51:15;9.47;;;8.77;;
2049;SDS011;8478;49.208;8.806;2022-07-23T07:53:41;10.00;;;9.20;;
2049;SDS011;8478;49.208;8.806;2022-07-23T07:56:07;8.40;;;7.70;;
2049;SDS011;8478;49.208;8.806;2022-07-23T07:58:33;9.80;;;9.10;;
2049;SDS011;8478;49.208;8.806;2022-07-23T08:00:58;9.80;;;8.90;;
2049;SDS011;8478;49.208;8.806;2022-07-23T08:03:25;10.27;;;9.37;;
2049;SDS011;8478;49.208;8.806;2022-07-23T08:05:51;10.60;;;9.80;;
2049;SDS011;8478;49.208;8.806;2022-07-23T08:08:17;10.23;;;9.20;;
2049;SDS011;8478;49.208;8.806;2022-07-23T08:10:42;9.40;;;8.70;;
2049;SDS011;8478;49.208;8.806;2022-07-23T08:13:11;10.00;;;9.20;;
2049;SDS011;8478;49.208;8.806;2022-07-23T08:15:41;10.00;;;9.20;;
2049;SDS011;8478;49.208;8.806;2022-07-23T08:18:07;10.87;;;9.77;;
2049;SDS011;8478;49.208;8.806;2022-07-23T08:20:33;10.10;;;9.40;;
2049;SDS011;8478;49.208;8.806;2022-07-23T08:22:59;10.20;;;9.40;;
2049;SDS011;8478;49.208;8.806;2022-07-23T08:25:29;10.23;;;9.33;;
2049;SDS011;8478;49.208;8.806;2022-07-23T08:27:57;10.07;;;9.37;;
2049;SDS011;8478;49.208;8.806;2022-07-23T08:30:25;10.03;;;9.23;;
2049;SDS011;8478;49.208;8.806;2022-07-23T08:32:58;10.17;;;9.47;;
2049;SDS011;8478;49.208;8.806;2022-07-23T08:35:31;9.63;;;8.83;;
2049;SDS011;8478;49.208;8.806;2022-07-23T08:38:02;10.20;;;9.50;;
2049;SDS011;8478;49.208;8.806;2022-07-23T08:40:34;11.77;;;10.87;;
2049;SDS011;8478;49.208;8.806;2022-07-23T08:43:06;10.40;;;9.50;;
2049;SDS011;8478;49.208;8.806;2022-07-23T08:45:35;11.03;;;10.27;;
2049;SDS011;8478;49.208;8.806;2022-07-23T08:48:16;10.60;;;9.80;;
2049;SDS011;8478;49.208;8.806;2022-07-23T08:50:44;10.50;;;9.60;;
2049;SDS011;8478;49.208;8.806;2022-07-23T08:53:15;11.00;;;10.10;;
2049;SDS011;8478;49.208;8.806;2022-07-23T08:55:45;10.70;;;9.80;;
2049;SDS011;8478;49.208;8.806;2022-07-23T08:58:12;10.60;;;9.73;;
2049;SDS011;8478;49.208;8.806;2022-07-23T09:00:38;10.27;;;9.47;;
2049;SDS011;8478;49.208;8.806;2022-07-23T09:03:04;10.17;;;9.37;;
2049;SDS011;8478;49.208;8.806;2022-07-23T09:05:30;10.40;;;9.60;;
2049;SDS011;8478;49.208;8.806;2022-07-23T09:13:29;10.03;;;9.23;;
2049;SDS011;8478;49.208;8.806;2022-07-23T09:15:55;9.80;;;9.10;;
2049;SDS011;8478;49.208;8.806;2022-07-23T09:18:33;10.10;;;9.30;;
2049;SDS011;8478;49.208;8.806;2022-07-23T09:23:36;11.20;;;10.33;;
2049;SDS011;8478;49.208;8.806;2022-07-23T09:26:07;10.77;;;9.87;;
2049;SDS011;8478;49.208;8.806;2022-07-23T09:28:58;10.37;;;9.57;;
2049;SDS011;8478;49.208;8.806;2022-07-23T09:34:16;12.27;;;11.37;;
2049;SDS011;8478;49.208;8.806;2022-07-23T09:36:46;11.90;;;11.10;;
2049;SDS011;8478;49.208;8.806;2022-07-23T09:39:13;11.90;;;10.90;;
2049;SDS011;8478;49.208;8.806;2022-07-23T09:41:41;11.63;;;10.83;;
2049;SDS011;8478;49.208;8.806;2022-07-23T09:46:41;12.67;;;11.50;;
2049;SDS011;8478;49.208;8.806;2022-07-23T09:49:21;11.80;;;10.90;;
2049;SDS011;8478;49.208;8.806;2022-07-23T09:51:52;12.53;;;11.57;;
2049;SDS011;8478;49.208;8.806;2022-07-23T09:54:30;11.80;;;10.80;;
2049;SDS011;8478;49.208;8.806;2022-07-23T09:56:58;11.43;;;10.33;;
2049;SDS011;8478;49.208;8.806;2022-07-23T09:59:33;10.87;;;9.97;;
2049;SDS011;8478;49.208;8.806;2022-07-23T10:02:01;12.10;;;11.20;;
2049;SDS011;8478;49.208;8.806;2022-07-23T10:04:28;11.30;;;10.40;;
2049;SDS011;8478;49.208;8.806;2022-07-23T10:06:56;11.43;;;10.53;;
2049;SDS011;8478;49.208;8.806;2022-07-23T10:09:31;12.90;;;11.83;;
2049;SDS011;8478;49.208;8.806;2022-07-23T10:12:00;11.20;;;10.10;;
2049;SDS011;8478;49.208;8.806;2022-07-23T10:14:45;12.00;;;11.10;;
2049;SDS011;8478;49.208;8.806;2022-07-23T10:17:12;11.83;;;10.97;;
2049;SDS011;8478;49.208;8.806;2022-07-23T10:19:38;12.00;;;10.97;;
2049;SDS011;8478;49.208;8.806;2022-07-23T10:22:06;12.17;;;11.17;;
2049;SDS011;8478;49.208;8.806;2022-07-23T10:27:38;11.40;;;10.50;;
2049;SDS011;8478;49.208;8.806;2022-07-23T10:30:28;12.20;;;11.20;;
2049;SDS011;8478;49.208;8.806;2022-07-23T10:36:08;11.77;;;10.90;;
2049;SDS011;8478;49.208;8.806;2022-07-23T10:38:48;11.97;;;11.07;;
2049;SDS011;8478;49.208;8.806;2022-07-23T10:41:32;11.13;;;10.33;;
2049;SDS011;8478;49.208;8.806;2022-07-23T10:44:06;11.13;;;10.33;;
2049;SDS011;8478;49.208;8.806;2022-07-23T10:49:27;11.77;;;10.67;;
2049;SDS011;8478;49.208;8.806;2022-07-23T10:54:56;10.73;;;9.93;;
2049;SDS011;8478;49.208;8.806;2022-07-23T10:57:47;10.60;;;9.90;;
2049;SDS011;8478;49.208;8.806;2022-07-23T11:00:15;11.13;;;10.20;;
2049;SDS011;8478;49.208;8.806;2022-07-23T11:02:45;11.00;;;10.20;;
2049;SDS011;8478;49.208;8.806;2022-07-23T11:05:13;10.93;;;10.13;;
2049;SDS011;8478;49.208;8.806;2022-07-23T11:10:40;11.50;;;10.70;;
2049;SDS011;8478;49.208;8.806;2022-07-23T11:13:27;11.17;;;10.37;;
2049;SDS011;8478;49.208;8.806;2022-07-23T11:27:07;10.30;;;9.50;;
2049;SDS011;8478;49.208;8.806;2022-07-23T11:32:06;10.83;;;10.13;;
2049;SDS011;8478;49.208;8.806;2022-07-23T11:37:04;12.17;;;11.30;;
2049;SDS011;8478;49.208;8.806;2022-07-23T11:39:32;12.40;;;11.50;;
2049;SDS011;8478;49.208;8.806;2022-07-23T11:41:58;11.73;;;10.83;;
2049;SDS011;8478;49.208;8.806;2022-07-23T11:44:25;14.03;;;12.97;;
2049;SDS011;8478;49.208;8.806;2022-07-23T11:49:26;12.60;;;11.53;;
2049;SDS011;8478;49.208;8.806;2022-07-23T11:52:08;12.10;;;11.20;;
2049;SDS011;8478;49.208;8.806;2022-07-23T11:57:19;11.70;;;10.90;;
2049;SDS011;8478;49.208;8.806;2022-07-23T11:59:50;11.73;;;10.83;;
2049;SDS011;8478;49.208;8.806;2022-07-23T12:02:19;10.97;;;10.03;;
2049;SDS011;8478;49.208;8.806;2022-07-23T12:04:47;11.40;;;10.60;;
2049;SDS011;8478;49.208;8.806;2022-07-23T12:10:12;13.00;;;12.10;;
2049;SDS011;8478;49.208;8.806;2022-07-23T12:12:41;11.57;;;10.60;;
2049;SDS011;8478;49.208;8.806;2022-07-23T12:15:10;12.00;;;11.10;;
2049;SDS011;8478;49.208;8.806;2022-07-23T12:17:37;10.87;;;10.10;;
2049;SDS011;8478;49.208;8.806;2022-07-23T12:20:06;11.93;;;11.03;;
2049;SDS011;8478;49.208;8.806;2022-07-23T12:22:35;11.47;;;10.60;;
2049;SDS011;8478;49.208;8.806;2022-07-23T12:25:03;11.90;;;11.10;;
2049;SDS011;8478;49.208;8.806;2022-07-23T12:27:32;10.87;;;10.17;;
2049;SDS011;8478;49.208;8.806;2022-07-23T12:29:58;10.83;;;10.03;;
2049;SDS011;8478;49.208;8.806;2022-07-23T12:32:25;12.10;;;11.20;;
2049;SDS011;8478;49.208;8.806;2022-07-23T12:35:06;10.97;;;10.17;;
2049;SDS011;8478;49.208;8.806;2022-07-23T12:37:40;11.10;;;10.30;;
2049;SDS011;8478;49.208;8.806;2022-07-23T12:40:23;12.70;;;11.50;;
2049;SDS011;8478;49.208;8.806;2022-07-23T12:42:55;11.40;;;10.60;;
2049;SDS011;8478;49.208;8.806;2022-07-23T12:45:26;11.53;;;10.63;;
2049;SDS011;8478;49.208;8.806;2022-07-23T12:47:54;11.83;;;10.83;;
2049;SDS011;8478;49.208;8.806;2022-07-23T12:53:14;11.70;;;10.90;;
2049;SDS011;8478;49.208;8.806;2022-07-23T12:55:42;11.07;;;10.27;;
2049;SDS011;8478;49.208;8.806;2022-07-23T13:00:51;11.30;;;10.50;;
2049;SDS011;8478;49.208;8.806;2022-07-23T13:06:03;12.37;;;11.43;;
2049;SDS011;8478;49.208;8.806;2022-07-23T13:08:30;11.07;;;10.20;;
2049;SDS011;8478;49.208;8.806;2022-07-23T13:10:57;10.90;;;10.10;;
2049;SDS011;8478;49.208;8.806;2022-07-23T13:13:24;11.67;;;10.63;;
2049;SDS011;8478;49.208;8.806;2022-07-23T13:15:52;11.27;;;10.40;;
2049;SDS011;8478;49.208;8.806;2022-07-23T13:18:18;12.00;;;11.10;;
2049;SDS011;8478;49.208;8.806;2022-07-23T13:20:45;11.57;;;10.60;;
2049;SDS011;8478;49.208;8.806;2022-07-23T13:23:12;10.13;;;9.40;;
2049;SDS011;8478;49.208;8.806;2022-07-23T13:25:38;11.30;;;10.40;;
2049;SDS011;8478;49.208;8.806;2022-07-23T13:28:04;10.50;;;9.60;;
2049;SDS011;8478;49.208;8.806;2022-07-23T13:30:30;9.80;;;9.10;;
2049;SDS011;8478;49.208;8.806;2022-07-23T13:32:56;10.97;;;10.17;;
2049;SDS011;8478;49.208;8.806;2022-07-23T13:35:21;11.73;;;10.93;;
2049;SDS011;8478;49.208;8.806;2022-07-23T13:37:47;10.73;;;9.67;;
2049;SDS011;8478;49.208;8.806;2022-07-23T13:40:13;11.27;;;10.47;;
2049;SDS011;8478;49.208;8.806;2022-07-23T13:42:39;10.70;;;9.90;;
2049;SDS011;8478;49.208;8.806;2022-07-23T13:45:05;11.33;;;10.53;;
2049;SDS011;8478;49.208;8.806;2022-07-23T13:47:32;10.97;;;10.10;;
2049;SDS011;8478;49.208;8.806;2022-07-23T13:49:58;11.83;;;11.00;;
2049;SDS011;8478;49.208;8.806;2022-07-23T13:52:23;10.50;;;9.67;;
2049;SDS011;8478;49.208;8.806;2022-07-23T13:54:49;12.20;;;11.27;;
2049;SDS011;8478;49.208;8.806;2022-07-23T13:57:15;10.70;;;9.90;;
2049;SDS011;8478;49.208;8.806;2022-07-23T13:59:41;10.13;;;9.33;;
2049;SDS011;8478;49.208;8.806;2022-07-23T14:02:07;12.20;;;11.30;;
2049;SDS011;8478;49.208;8.806;2022-07-23T14:04:33;10.53;;;9.63;;
2049;SDS011;8478;49.208;8.806;2022-07-23T14:06:59;12.10;;;11.30;;
2049;SDS011;8478;49.208;8.806;2022-07-23T14:09:26;11.40;;;10.60;;
2049;SDS011;8478;49.208;8.806;2022-07-23T14:11:52;10.40;;;9.60;;
2049;SDS011;8478;49.208;8.806;2022-07-23T14:14:18;11.47;;;10.67;;
2049;SDS011;8478;49.208;8.806;2022-07-23T14:16:44;11.27;;;10.47;;
2049;SDS011;8478;49.208;8.806;2022-07-23T14:19:10;11.97;;;10.87;;
2049;SDS011;8478;49.208;8.806;2022-07-23T14:21:36;12.07;;;11.10;;
2049;SDS011;8478;49.208;8.806;2022-07-23T14:24:02;11.13;;;10.43;;
2049;SDS011;8478;49.208;8.806;2022-07-23T14:26:28;12.37;;;11.57;;
2049;SDS011;8478;49.208;8.806;2022-07-23T14:28:54;10.67;;;9.90;;
2049;SDS011;8478;49.208;8.806;2022-07-23T14:31:20;10.70;;;10.00;;
2049;SDS011;8478;49.208;8.806;2022-07-23T14:33:46;12.20;;;11.40;;
2049;SDS011;8478;49.208;8.806;2022-07-23T14:36:13;11.07;;;10.17;;
2049;SDS011;8478;49.208;8.806;2022-07-23T14:38:38;12.20;;;11.30;;
2049;SDS011;8478;49.208;8.806;2022-07-23T14:41:04;11.70;;;10.93;;
2049;SDS011;8478;49.208;8.806;2022-07-23T14:43:34;11.73;;;10.87;;
2049;SDS011;8478;49.208;8.806;2022-07-23T14:45:59;11.30;;;10.60;;
2049;SDS011;8478;49.208;8.806;2022-07-23T14:48:25;11.13;;;10.33;;
2049;SDS011;8478;49.208;8.806;2022-07-23T14:50:51;12.90;;;12.00;;
2049;SDS011;8478;49.208;8.806;2022-07-23T14:53:17;11.57;;;10.67;;
2049;SDS011;8478;49.208;8.806;2022-07-23T14:55:43;12.03;;;11.13;;
2049;SDS011;8478;49.208;8.806;2022-07-23T14:58:09;11.43;;;10.63;;
2049;SDS011;8478;49.208;8.806;2022-07-23T15:00:34;11.37;;;10.57;;
2049;SDS011;8478;49.208;8.806;2022-07-23T15:03:00;11.67;;;10.77;;
2049;SDS011;8478;49.208;8.806;2022-07-23T15:05:26;10.50;;;9.70;;
2049;SDS011;8478;49.208;8.806;2022-07-23T15:07:53;12.10;;;11.30;;
2049;SDS011;8478;49.208;8.806;2022-07-23T15:10:19;11.63;;;10.60;;
2049;SDS011;8478;49.208;8.806;2022-07-23T15:12:45;10.43;;;9.70;;
2049;SDS011;8478;49.208;8.806;2022-07-23T15:15:10;10.77;;;9.97;;
2049;SDS011;8478;49.208;8.806;2022-07-23T15:17:36;11.47;;;10.73;;
2049;SDS011;8478;49.208;8.806;2022-07-23T15:20:02;8.80;;;8.20;;
2049;SDS011;8478;49.208;8.806;2022-07-23T15:22:28;12.10;;;11.10;;
2049;SDS011;8478;49.208;8.806;2022-07-23T15:24:54;12.33;;;11.43;;
2049;SDS011;8478;49.208;8.806;2022-07-23T15:27:19;11.37;;;10.63;;
2049;SDS011;8478;49.208;8.806;2022-07-23T15:29:45;11.30;;;10.40;;
2049;SDS011;8478;49.208;8.806;2022-07-23T15:32:11;11.03;;;10.23;;
2049;SDS011;8478;49.208;8.806;2022-07-23T15:34:37;12.37;;;11.47;;
2049;SDS011;8478;49.208;8.806;2022-07-23T15:37:04;11.57;;;10.77;;
2049;SDS011;8478;49.208;8.806;2022-07-23T15:39:31;11.13;;;10.40;;
2049;SDS011;8478;49.208;8.806;2022-07-23T15:42:00;11.97;;;11.07;;
2049;SDS011;8478;49.208;8.806;2022-07-23T15:44:26;11.50;;;10.60;;
2049;SDS011;8478;49.208;8.806;2022-07-23T15:46:52;11.77;;;10.67;;
2049;SDS011;8478;49.208;8.806;2022-07-23T15:49:18;11.10;;;10.27;;
2049;SDS011;8478;49.208;8.806;2022-07-23T15:51:43;11.70;;;10.83;;
2049;SDS011;8478;49.208;8.806;2022-07-23T15:54:09;10.93;;;10.10;;
2049;SDS011;8478;49.208;8.806;2022-07-23T15:56:35;11.20;;;10.20;;
2049;SDS011;8478;49.208;8.806;2022-07-23T15:59:01;10.37;;;9.67;;
2049;SDS011;8478;49.208;8.806;2022-07-23T16:01:27;12.20;;;11.20;;